sensor_id;sensor_type;location;lat;lon;timestamp;P1;durP1;ratioP1;P2;durP2;ratioP2
72337;SDS011;60294;64.134;-21.862;2023-01-29T00:02:23;1.43;;;0.67;;
72337;SDS011;60294;64.134;-21.862;2023-01-29T00:04:49;10.80;;;1.00;;
72337;SDS011;60294;64.134;-21.862;2023-01-29T00:07:15;3.80;;;0.63;;
72337;SDS011;60294;64.134;-21.862;2023-01-29T00:09:40;6.60;;;1.57;;
72337;SDS011;60294;64.134;-21.862;2023-01-29T00:12:06;4.20;;;0.77;;
72337;SDS011;60294;64.134;-21.862;2023-01-29T00:14:35;2.57;;;0.77;;
72337;SDS011;60294;64.134;-21.862;2023-01-29T00:17:00;6.20;;;1.03;;
72337;SDS011;60294;64.134;-21.862;2023-01-29T00:19:26;5.37;;;1.47;;
72337;SDS011;60294;64.134;-21.862;2023-01-29T00:21:52;7.43;;;2.60;;
72337;SDS011;60294;64.134;-21.862;2023-01-29T00:24:18;11.10;;;2.87;;
72337;SDS011;60294;64.134;-21.862;2023-01-29T00:26:44;5.50;;;1.37;;
72337;SDS011;60294;64.134;-21.862;2023-01-29T00:29:09;9.23;;;1.70;;
72337;SDS011;60294;64.134;-21.862;2023-01-29T00:31:35;9.93;;;1.60;;
72337;SDS011;60294;64.134;-21.862;2023-01-29T00:34:01;2.67;;;0.33;;
72337;SDS011;60294;64.134;-21.862;2023-01-29T00:36:27;4.33;;;1.37;;
72337;SDS011;60294;64.134;-21.862;2023-01-29T00:38:57;7.63;;;1.13;;
72337;SDS011;60294;64.134;-21.862;2023-01-29T00:41:28;8.57;;;1.83;;
72337;SDS011;60294;64.134;-21.862;2023-01-29T00:44:13;4.03;;;0.80;;
72337;SDS011;60294;64.134;-21.862;2023-01-29T00:46:58;8.40;;;1.03;;
72337;SDS011;60294;64.134;-21.862;2023-01-29T00:49:24;3.53;;;0.90;;
72337;SDS011;60294;64.134;-21.862;2023-01-29T00:51:50;1.97;;;0.43;;
72337;SDS011;60294;64.134;-21.862;2023-01-29T00:54:35;10.17;;;1.43;;
72337;SDS011;60294;64.134;-21.862;2023-01-29T00:57:01;5.63;;;1.13;;
72337;SDS011;60294;64.134;-21.862;2023-01-29T00:59:27;5.63;;;1.00;;
72337;SDS011;60294;64.134;-21.862;2023-01-29T01:01:54;6.60;;;1.07;;
72337;SDS011;60294;64.134;-21.862;2023-01-29T01:04:38;6.60;;;0.80;;
72337;SDS011;60294;64.134;-21.862;2023-01-29T01:07:04;12.70;;;2.63;;
72337;SDS011;60294;64.134;-21.862;2023-01-29T01:09:31;14.00;;;1.63;;
72337;SDS011;60294;64.134;-21.862;2023-01-29T01:12:18;10.87;;;1.43;;
72337;SDS011;60294;64.134;-21.862;2023-01-29T01:14:44;6.77;;;1.73;;
72337;SDS011;60294;64.134;-21.862;2023-01-29T01:17:10;3.27;;;0.97;;
72337;SDS011;60294;64.134;-21.862;2023-01-29T01:19:35;4.40;;;0.70;;
72337;SDS011;60294;64.134;-21.862;2023-01-29T01:22:01;13.50;;;1.23;;
72337;SDS011;60294;64.134;-21.862;2023-01-29T01:24:29;1.07;;;0.27;;
72337;SDS011;60294;64.134;-21.862;2023-01-29T01:26:55;6.07;;;1.07;;
72337;SDS011;60294;64.134;-21.862;2023-01-29T01:29:20;9.77;;;1.70;;
72337;SDS011;60294;64.134;-21.862;2023-01-29T01:31:46;4.43;;;0.80;;
72337;SDS011;60294;64.134;-21.862;2023-01-29T01:34:12;3.90;;;0.83;;
72337;SDS011;60294;64.134;-21.862;2023-01-29T01:36:38;6.10;;;1.27;;
72337;SDS011;60294;64.134;-21.862;2023-01-29T01:39:04;7.77;;;1.50;;
72337;SDS011;60294;64.134;-21.862;2023-01-29T01:41:30;12.07;;;2.27;;
72337;SDS011;60294;64.134;-21.862;2023-01-29T01:43:57;18.33;;;1.70;;
72337;SDS011;60294;64.134;-21.862;2023-01-29T01:46:30;8.63;;;1.17;;
72337;SDS011;60294;64.134;-21.862;2023-01-29T01:49:11;6.73;;;1.20;;
72337;SDS011;60294;64.134;-21.862;2023-01-29T01:51:42;4.67;;;0.90;;
72337;SDS011;60294;64.134;-21.862;2023-01-29T01:54:28;4.97;;;1.60;;
72337;SDS011;60294;64.134;-21.862;2023-01-29T01:56:58;7.07;;;1.03;;
72337;SDS011;60294;64.134;-21.862;2023-01-29T02:02:12;2.20;;;0.70;;
72337;SDS011;60294;64.134;-21.862;2023-01-29T02:04:58;6.77;;;1.57;;
72337;SDS011;60294;64.134;-21.862;2023-01-29T02:07:43;8.03;;;1.90;;
72337;SDS011;60294;64.134;-21.862;2023-01-29T02:10:34;15.80;;;1.67;;
72337;SDS011;60294;64.134;-21.862;2023-01-29T02:13:09;7.43;;;1.50;;
72337;SDS011;60294;64.134;-21.862;2023-01-29T02:15:36;16.90;;;1.80;;
72337;SDS011;60294;64.134;-21.862;2023-01-29T02:18:06;6.63;;;1.00;;
72337;SDS011;60294;64.134;-21.862;2023-01-29T02:20:33;8.33;;;1.90;;
72337;SDS011;60294;64.134;-21.862;2023-01-29T02:28:57;7.17;;;1.53;;
72337;SDS011;60294;64.134;-21.862;2023-01-29T02:32:08;5.67;;;1.03;;
72337;SDS011;60294;64.134;-21.862;2023-01-29T02:34:59;4.83;;;1.20;;
72337;SDS011;60294;64.134;-21.862;2023-01-29T02:40:30;3.37;;;0.67;;
72337;SDS011;60294;64.134;-21.862;2023-01-29T02:46:10;8.47;;;1.13;;
72337;SDS011;60294;64.134;-21.862;2023-01-29T02:48:48;0.93;;;0.27;;
72337;SDS011;60294;64.134;-21.862;2023-01-29T02:51:35;0.60;;;0.40;;
72337;SDS011;60294;64.134;-21.862;2023-01-29T02:54:23;3.30;;;0.97;;
72337;SDS011;60294;64.134;-21.862;2023-01-29T02:57:16;1.43;;;0.50;;
72337;SDS011;60294;64.134;-21.862;2023-01-29T02:59:54;4.20;;;0.60;;
72337;SDS011;60294;64.134;-21.862;2023-01-29T03:02:53;4.60;;;0.80;;
72337;SDS011;60294;64.134;-21.862;2023-01-29T03:05:26;3.17;;;0.97;;
72337;SDS011;60294;64.134;-21.862;2023-01-29T03:08:15;2.13;;;0.60;;
72337;SDS011;60294;64.134;-21.862;2023-01-29T03:10:50;5.07;;;0.55;;
72337;SDS011;60294;64.134;-21.862;2023-01-29T03:16:02;8.00;;;0.93;;
72337;SDS011;60294;64.134;-21.862;2023-01-29T03:18:38;7.75;;;1.10;;
72337;SDS011;60294;64.134;-21.862;2023-01-29T03:21:12;5.47;;;1.13;;
72337;SDS011;60294;64.134;-21.862;2023-01-29T03:24:01;3.93;;;1.07;;
72337;SDS011;60294;64.134;-21.862;2023-01-29T03:26:46;8.70;;;1.00;;
72337;SDS011;60294;64.134;-21.862;2023-01-29T03:29:31;2.90;;;0.90;;
72337;SDS011;60294;64.134;-21.862;2023-01-29T03:32:19;4.00;;;0.87;;
72337;SDS011;60294;64.134;-21.862;2023-01-29T03:34:52;7.17;;;1.37;;
72337;SDS011;60294;64.134;-21.862;2023-01-29T03:37:29;1.77;;;0.73;;
72337;SDS011;60294;64.134;-21.862;2023-01-29T03:40:03;4.00;;;0.80;;
72337;SDS011;60294;64.134;-21.862;2023-01-29T03:51:10;7.73;;;0.80;;
72337;SDS011;60294;64.134;-21.862;2023-01-29T03:56:53;0.83;;;0.40;;
72337;SDS011;60294;64.134;-21.862;2023-01-29T04:02:07;3.87;;;0.60;;
72337;SDS011;60294;64.134;-21.862;2023-01-29T04:04:38;3.58;;;1.27;;
72337;SDS011;60294;64.134;-21.862;2023-01-29T04:07:09;3.33;;;0.63;;
72337;SDS011;60294;64.134;-21.862;2023-01-29T04:09:57;11.80;;;1.60;;
72337;SDS011;60294;64.134;-21.862;2023-01-29T04:12:28;4.23;;;0.80;;
72337;SDS011;60294;64.134;-21.862;2023-01-29T04:15:00;3.67;;;0.97;;
72337;SDS011;60294;64.134;-21.862;2023-01-29T04:17:30;7.40;;;1.00;;
72337;SDS011;60294;64.134;-21.862;2023-01-29T04:20:02;7.20;;;1.43;;
72337;SDS011;60294;64.134;-21.862;2023-01-29T04:22:32;11.20;;;1.37;;
72337;SDS011;60294;64.134;-21.862;2023-01-29T04:25:02;6.23;;;1.30;;
72337;SDS011;60294;64.134;-21.862;2023-01-29T04:36:10;10.73;;;1.10;;
72337;SDS011;60294;64.134;-21.862;2023-01-29T04:41:33;6.30;;;1.40;;
72337;SDS011;60294;64.134;-21.862;2023-01-29T04:44:14;4.20;;;0.80;;
72337;SDS011;60294;64.134;-21.862;2023-01-29T04:49:36;5.83;;;1.10;;
72337;SDS011;60294;64.134;-21.862;2023-01-29T04:55:54;1.83;;;1.00;;
72337;SDS011;60294;64.134;-21.862;2023-01-29T05:00:53;1.37;;;1.03;;
72337;SDS011;60294;64.134;-21.862;2023-01-29T05:03:20;4.43;;;0.90;;
72337;SDS011;60294;64.134;-21.862;2023-01-29T05:05:48;2.17;;;0.57;;
72337;SDS011;60294;64.134;-21.862;2023-01-29T05:08:18;5.13;;;0.90;;
72337;SDS011;60294;64.134;-21.862;2023-01-29T05:10:47;5.93;;;0.83;;
72337;SDS011;60294;64.134;-21.862;2023-01-29T05:13:14;12.93;;;2.93;;
72337;SDS011;60294;64.134;-21.862;2023-01-29T05:15:46;7.90;;;1.30;;
72337;SDS011;60294;64.134;-21.862;2023-01-29T05:18:29;7.10;;;1.37;;
72337;SDS011;60294;64.134;-21.862;2023-01-29T05:20:55;7.40;;;1.13;;
72337;SDS011;60294;64.134;-21.862;2023-01-29T05:23:24;1.10;;;0.67;;
72337;SDS011;60294;64.134;-21.862;2023-01-29T05:25:49;9.80;;;1.90;;
72337;SDS011;60294;64.134;-21.862;2023-01-29T05:28:17;13.37;;;1.70;;
72337;SDS011;60294;64.134;-21.862;2023-01-29T05:30:44;9.93;;;1.00;;
72337;SDS011;60294;64.134;-21.862;2023-01-29T05:35:39;2.97;;;0.70;;
72337;SDS011;60294;64.134;-21.862;2023-01-29T05:38:06;3.93;;;0.93;;
72337;SDS011;60294;64.134;-21.862;2023-01-29T05:40:32;5.20;;;0.70;;
72337;SDS011;60294;64.134;-21.862;2023-01-29T05:42:57;8.77;;;1.23;;
72337;SDS011;60294;64.134;-21.862;2023-01-29T05:45:23;9.17;;;1.00;;
72337;SDS011;60294;64.134;-21.862;2023-01-29T05:47:49;8.83;;;1.43;;
72337;SDS011;60294;64.134;-21.862;2023-01-29T05:50:19;3.03;;;0.80;;
72337;SDS011;60294;64.134;-21.862;2023-01-29T05:52:45;7.83;;;1.00;;
72337;SDS011;60294;64.134;-21.862;2023-01-29T05:55:10;5.93;;;0.77;;
72337;SDS011;60294;64.134;-21.862;2023-01-29T05:57:36;1.30;;;0.50;;
72337;SDS011;60294;64.134;-21.862;2023-01-29T06:00:04;6.10;;;0.93;;
72337;SDS011;60294;64.134;-21.862;2023-01-29T06:02:31;4.43;;;0.83;;
72337;SDS011;60294;64.134;-21.862;2023-01-29T06:04:56;5.53;;;0.83;;
72337;SDS011;60294;64.134;-21.862;2023-01-29T06:07:22;0.80;;;0.80;;
72337;SDS011;60294;64.134;-21.862;2023-01-29T06:09:48;1.03;;;0.63;;
72337;SDS011;60294;64.134;-21.862;2023-01-29T06:12:14;5.23;;;1.40;;
72337;SDS011;60294;64.134;-21.862;2023-01-29T06:14:39;3.90;;;1.03;;
72337;SDS011;60294;64.134;-21.862;2023-01-29T06:17:05;5.13;;;0.93;;
72337;SDS011;60294;64.134;-21.862;2023-01-29T06:19:32;2.53;;;0.70;;
72337;SDS011;60294;64.134;-21.862;2023-01-29T06:21:58;5.53;;;1.00;;
72337;SDS011;60294;64.134;-21.862;2023-01-29T06:24:24;12.43;;;1.30;;
72337;SDS011;60294;64.134;-21.862;2023-01-29T06:26:50;9.70;;;1.43;;
72337;SDS011;60294;64.134;-21.862;2023-01-29T06:29:15;12.90;;;1.73;;
72337;SDS011;60294;64.134;-21.862;2023-01-29T06:31:41;4.93;;;1.40;;
72337;SDS011;60294;64.134;-21.862;2023-01-29T06:34:07;8.67;;;1.63;;
72337;SDS011;60294;64.134;-21.862;2023-01-29T06:36:33;9.33;;;1.03;;
72337;SDS011;60294;64.134;-21.862;2023-01-29T06:38:59;15.23;;;1.70;;
72337;SDS011;60294;64.134;-21.862;2023-01-29T06:41:25;6.10;;;1.30;;
72337;SDS011;60294;64.134;-21.862;2023-01-29T06:43:51;12.13;;;1.70;;
72337;SDS011;60294;64.134;-21.862;2023-01-29T06:46:16;5.53;;;0.90;;
72337;SDS011;60294;64.134;-21.862;2023-01-29T06:48:42;6.60;;;1.20;;
72337;SDS011;60294;64.134;-21.862;2023-01-29T06:51:09;6.90;;;1.30;;
72337;SDS011;60294;64.134;-21.862;2023-01-29T06:53:36;4.97;;;1.17;;
72337;SDS011;60294;64.134;-21.862;2023-01-29T06:56:02;10.97;;;1.40;;
72337;SDS011;60294;64.134;-21.862;2023-01-29T06:58:29;5.40;;;1.40;;
72337;SDS011;60294;64.134;-21.862;2023-01-29T07:01:05;6.43;;;0.97;;
72337;SDS011;60294;64.134;-21.862;2023-01-29T07:03:32;4.03;;;0.77;;
72337;SDS011;60294;64.134;-21.862;2023-01-29T07:05:58;7.63;;;1.10;;
72337;SDS011;60294;64.134;-21.862;2023-01-29T07:08:24;10.27;;;1.33;;
72337;SDS011;60294;64.134;-21.862;2023-01-29T07:10:50;1.77;;;0.50;;
72337;SDS011;60294;64.134;-21.862;2023-01-29T07:13:15;6.23;;;0.83;;
72337;SDS011;60294;64.134;-21.862;2023-01-29T07:15:41;12.77;;;1.73;;
72337;SDS011;60294;64.134;-21.862;2023-01-29T07:18:08;1.20;;;0.40;;
72337;SDS011;60294;64.134;-21.862;2023-01-29T07:20:41;4.83;;;0.90;;
72337;SDS011;60294;64.134;-21.862;2023-01-29T07:23:13;5.73;;;1.33;;
72337;SDS011;60294;64.134;-21.862;2023-01-29T07:25:39;7.57;;;0.95;;
72337;SDS011;60294;64.134;-21.862;2023-01-29T07:28:05;8.07;;;1.23;;
72337;SDS011;60294;64.134;-21.862;2023-01-29T07:30:32;4.40;;;1.07;;
72337;SDS011;60294;64.134;-21.862;2023-01-29T07:33:02;9.63;;;1.43;;
72337;SDS011;60294;64.134;-21.862;2023-01-29T07:35:30;4.27;;;1.00;;
72337;SDS011;60294;64.134;-21.862;2023-01-29T07:37:56;8.07;;;1.10;;
72337;SDS011;60294;64.134;-21.862;2023-01-29T07:40:22;13.77;;;1.53;;
72337;SDS011;60294;64.134;-21.862;2023-01-29T07:42:48;2.37;;;0.80;;
72337;SDS011;60294;64.134;-21.862;2023-01-29T07:45:14;7.33;;;1.63;;
72337;SDS011;60294;64.134;-21.862;2023-01-29T07:47:39;3.40;;;0.90;;
72337;SDS011;60294;64.134;-21.862;2023-01-29T07:50:05;5.57;;;0.83;;
72337;SDS011;60294;64.134;-21.862;2023-01-29T07:52:32;10.70;;;1.40;;
72337;SDS011;60294;64.134;-21.862;2023-01-29T07:54:58;8.77;;;1.97;;
72337;SDS011;60294;64.134;-21.862;2023-01-29T07:57:24;10.60;;;1.70;;
72337;SDS011;60294;64.134;-21.862;2023-01-29T07:59:50;3.60;;;1.17;;
72337;SDS011;60294;64.134;-21.862;2023-01-29T08:02:15;7.07;;;1.43;;
72337;SDS011;60294;64.134;-21.862;2023-01-29T08:04:41;11.07;;;1.67;;
72337;SDS011;60294;64.134;-21.862;2023-01-29T08:07:07;4.63;;;1.00;;
72337;SDS011;60294;64.134;-21.862;2023-01-29T08:09:33;9.50;;;2.43;;
72337;SDS011;60294;64.134;-21.862;2023-01-29T08:12:00;17.47;;;1.57;;
72337;SDS011;60294;64.134;-21.862;2023-01-29T08:14:26;10.27;;;2.40;;
72337;SDS011;60294;64.134;-21.862;2023-01-29T08:16:52;9.73;;;1.70;;
72337;SDS011;60294;64.134;-21.862;2023-01-29T08:19:18;11.90;;;2.10;;
72337;SDS011;60294;64.134;-21.862;2023-01-29T08:21:43;15.70;;;1.53;;
72337;SDS011;60294;64.134;-21.862;2023-01-29T08:24:09;8.67;;;1.70;;
72337;SDS011;60294;64.134;-21.862;2023-01-29T08:26:35;5.80;;;1.43;;
72337;SDS011;60294;64.134;-21.862;2023-01-29T08:29:01;13.73;;;1.77;;
72337;SDS011;60294;64.134;-21.862;2023-01-29T08:31:26;9.43;;;1.73;;
72337;SDS011;60294;64.134;-21.862;2023-01-29T08:33:52;11.67;;;1.50;;
72337;SDS011;60294;64.134;-21.862;2023-01-29T08:36:19;7.13;;;1.20;;
72337;SDS011;60294;64.134;-21.862;2023-01-29T08:38:45;7.63;;;1.63;;
72337;SDS011;60294;64.134;-21.862;2023-01-29T08:41:11;8.53;;;2.37;;
72337;SDS011;60294;64.134;-21.862;2023-01-29T08:43:36;10.87;;;1.93;;
72337;SDS011;60294;64.134;-21.862;2023-01-29T08:46:06;5.83;;;1.40;;
72337;SDS011;60294;64.134;-21.862;2023-01-29T08:48:32;12.93;;;1.63;;
72337;SDS011;60294;64.134;-21.862;2023-01-29T08:50:59;12.37;;;1.80;;
72337;SDS011;60294;64.134;-21.862;2023-01-29T08:53:26;10.03;;;2.67;;
72337;SDS011;60294;64.134;-21.862;2023-01-29T08:55:52;6.37;;;1.23;;
72337;SDS011;60294;64.134;-21.862;2023-01-29T08:58:18;7.50;;;1.43;;
72337;SDS011;60294;64.134;-21.862;2023-01-29T09:00:44;11.17;;;1.43;;
72337;SDS011;60294;64.134;-21.862;2023-01-29T09:03:11;4.43;;;0.93;;
72337;SDS011;60294;64.134;-21.862;2023-01-29T09:05:37;3.60;;;1.73;;
72337;SDS011;60294;64.134;-21.862;2023-01-29T09:08:04;6.77;;;1.03;;
72337;SDS011;60294;64.134;-21.862;2023-01-29T09:10:31;7.77;;;0.93;;
72337;SDS011;60294;64.134;-21.862;2023-01-29T09:12:57;6.53;;;1.30;;
72337;SDS011;60294;64.134;-21.862;2023-01-29T09:15:23;13.70;;;1.40;;
72337;SDS011;60294;64.134;-21.862;2023-01-29T09:17:49;2.57;;;1.13;;
72337;SDS011;60294;64.134;-21.862;2023-01-29T09:20:15;7.10;;;0.80;;
72337;SDS011;60294;64.134;-21.862;2023-01-29T09:22:41;5.70;;;1.30;;
72337;SDS011;60294;64.134;-21.862;2023-01-29T09:25:08;3.17;;;0.93;;
72337;SDS011;60294;64.134;-21.862;2023-01-29T09:27:35;2.63;;;0.80;;
72337;SDS011;60294;64.134;-21.862;2023-01-29T09:30:00;3.60;;;0.87;;
72337;SDS011;60294;64.134;-21.862;2023-01-29T09:32:28;7.30;;;1.57;;
72337;SDS011;60294;64.134;-21.862;2023-01-29T09:34:57;6.40;;;1.30;;
72337;SDS011;60294;64.134;-21.862;2023-01-29T09:37:22;3.47;;;1.07;;
72337;SDS011;60294;64.134;-21.862;2023-01-29T09:39:48;5.27;;;1.77;;
72337;SDS011;60294;64.134;-21.862;2023-01-29T09:42:20;7.03;;;1.30;;
72337;SDS011;60294;64.134;-21.862;2023-01-29T09:45:05;5.83;;;1.30;;
72337;SDS011;60294;64.134;-21.862;2023-01-29T09:47:39;1.90;;;0.40;;
72337;SDS011;60294;64.134;-21.862;2023-01-29T09:58:02;3.63;;;1.25;;
72337;SDS011;60294;64.134;-21.862;2023-01-29T10:00:37;4.90;;;1.33;;
72337;SDS011;60294;64.134;-21.862;2023-01-29T10:16:59;6.67;;;1.63;;
72337;SDS011;60294;64.134;-21.862;2023-01-29T10:25:03;5.33;;;1.83;;
72337;SDS011;60294;64.134;-21.862;2023-01-29T10:27:31;5.43;;;1.30;;
72337;SDS011;60294;64.134;-21.862;2023-01-29T10:29:59;11.60;;;3.27;;
72337;SDS011;60294;64.134;-21.862;2023-01-29T10:32:29;2.57;;;0.50;;
72337;SDS011;60294;64.134;-21.862;2023-01-29T10:34:58;3.77;;;0.83;;
72337;SDS011;60294;64.134;-21.862;2023-01-29T10:37:36;12.40;;;1.15;;
72337;SDS011;60294;64.134;-21.862;2023-01-29T10:40:17;10.27;;;3.33;;
72337;SDS011;60294;64.134;-21.862;2023-01-29T10:43:03;6.13;;;1.17;;
72337;SDS011;60294;64.134;-21.862;2023-01-29T10:45:49;1.40;;;0.67;;
72337;SDS011;60294;64.134;-21.862;2023-01-29T10:59:43;6.10;;;1.13;;
72337;SDS011;60294;64.134;-21.862;2023-01-29T11:02:36;1.80;;;0.53;;
72337;SDS011;60294;64.134;-21.862;2023-01-29T11:07:44;3.33;;;1.43;;
72337;SDS011;60294;64.134;-21.862;2023-01-29T11:10:13;5.57;;;1.70;;
72337;SDS011;60294;64.134;-21.862;2023-01-29T11:12:41;5.80;;;1.00;;
72337;SDS011;60294;64.134;-21.862;2023-01-29T11:20:28;3.40;;;0.90;;
72337;SDS011;60294;64.134;-21.862;2023-01-29T11:22:55;2.13;;;0.87;;
72337;SDS011;60294;64.134;-21.862;2023-01-29T11:25:23;8.40;;;1.30;;
72337;SDS011;60294;64.134;-21.862;2023-01-29T11:27:51;0.73;;;0.63;;
72337;SDS011;60294;64.134;-21.862;2023-01-29T11:30:25;10.43;;;1.37;;
72337;SDS011;60294;64.134;-21.862;2023-01-29T11:33:05;1.80;;;0.77;;
72337;SDS011;60294;64.134;-21.862;2023-01-29T11:35:46;9.27;;;1.23;;
72337;SDS011;60294;64.134;-21.862;2023-01-29T11:40:42;3.80;;;0.90;;
72337;SDS011;60294;64.134;-21.862;2023-01-29T11:43:18;1.80;;;0.67;;
72337;SDS011;60294;64.134;-21.862;2023-01-29T11:45:54;3.13;;;0.50;;
72337;SDS011;60294;64.134;-21.862;2023-01-29T11:48:33;1.67;;;0.90;;
72337;SDS011;60294;64.134;-21.862;2023-01-29T11:51:04;1.03;;;0.67;;
72337;SDS011;60294;64.134;-21.862;2023-01-29T11:53:39;4.43;;;0.70;;
72337;SDS011;60294;64.134;-21.862;2023-01-29T11:56:24;4.30;;;1.20;;
72337;SDS011;60294;64.134;-21.862;2023-01-29T11:59:23;7.27;;;1.67;;
72337;SDS011;60294;64.134;-21.862;2023-01-29T12:05:05;6.23;;;0.70;;
72337;SDS011;60294;64.134;-21.862;2023-01-29T12:07:39;5.27;;;1.00;;
72337;SDS011;60294;64.134;-21.862;2023-01-29T12:10:27;4.33;;;1.03;;
72337;SDS011;60294;64.134;-21.862;2023-01-29T12:13:04;4.82;;;0.85;;
72337;SDS011;60294;64.134;-21.862;2023-01-29T12:20:53;4.10;;;1.20;;
72337;SDS011;60294;64.134;-21.862;2023-01-29T12:23:29;5.80;;;1.25;;
72337;SDS011;60294;64.134;-21.862;2023-01-29T12:26:07;6.07;;;1.40;;
72337;SDS011;60294;64.134;-21.862;2023-01-29T12:28:45;4.07;;;1.00;;
72337;SDS011;60294;64.134;-21.862;2023-01-29T12:33:59;6.53;;;2.30;;
72337;SDS011;60294;64.134;-21.862;2023-01-29T12:36:39;8.17;;;1.60;;
72337;SDS011;60294;64.134;-21.862;2023-01-29T12:39:19;6.23;;;1.20;;
72337;SDS011;60294;64.134;-21.862;2023-01-29T12:44:30;15.90;;;2.37;;
72337;SDS011;60294;64.134;-21.862;2023-01-29T12:47:06;6.07;;;1.53;;
72337;SDS011;60294;64.134;-21.862;2023-01-29T12:49:37;12.97;;;1.60;;
72337;SDS011;60294;64.134;-21.862;2023-01-29T12:54:38;16.93;;;2.77;;
72337;SDS011;60294;64.134;-21.862;2023-01-29T12:57:44;7.63;;;1.60;;
72337;SDS011;60294;64.134;-21.862;2023-01-29T13:00:35;8.20;;;1.80;;
72337;SDS011;60294;64.134;-21.862;2023-01-29T13:03:22;6.72;;;1.42;;
72337;SDS011;60294;64.134;-21.862;2023-01-29T13:06:33;7.30;;;2.25;;
72337;SDS011;60294;64.134;-21.862;2023-01-29T13:09:03;12.07;;;2.43;;
72337;SDS011;60294;64.134;-21.862;2023-01-29T13:11:38;9.97;;;1.43;;
72337;SDS011;60294;64.134;-21.862;2023-01-29T13:14:18;6.37;;;1.47;;
72337;SDS011;60294;64.134;-21.862;2023-01-29T13:19:28;9.47;;;3.07;;
72337;SDS011;60294;64.134;-21.862;2023-01-29T13:22:02;7.37;;;2.33;;
72337;SDS011;60294;64.134;-21.862;2023-01-29T13:24:38;4.80;;;2.20;;
72337;SDS011;60294;64.134;-21.862;2023-01-29T13:27:05;6.90;;;1.10;;
72337;SDS011;60294;64.134;-21.862;2023-01-29T13:29:31;14.17;;;2.30;;
72337;SDS011;60294;64.134;-21.862;2023-01-29T13:31:58;7.93;;;1.57;;
72337;SDS011;60294;64.134;-21.862;2023-01-29T13:37:18;17.83;;;1.87;;
72337;SDS011;60294;64.134;-21.862;2023-01-29T13:39:54;9.10;;;1.63;;
72337;SDS011;60294;64.134;-21.862;2023-01-29T13:45:21;3.23;;;0.80;;
72337;SDS011;60294;64.134;-21.862;2023-01-29T13:47:49;9.60;;;2.17;;
72337;SDS011;60294;64.134;-21.862;2023-01-29T13:50:23;5.53;;;1.63;;
72337;SDS011;60294;64.134;-21.862;2023-01-29T13:52:58;10.10;;;1.47;;
72337;SDS011;60294;64.134;-21.862;2023-01-29T13:58:12;4.77;;;2.37;;
72337;SDS011;60294;64.134;-21.862;2023-01-29T14:01:02;8.97;;;1.50;;
72337;SDS011;60294;64.134;-21.862;2023-01-29T14:05:58;4.43;;;0.87;;
72337;SDS011;60294;64.134;-21.862;2023-01-29T14:13:44;4.80;;;1.27;;
72337;SDS011;60294;64.134;-21.862;2023-01-29T14:18:43;4.77;;;2.70;;
72337;SDS011;60294;64.134;-21.862;2023-01-29T14:21:26;10.00;;;1.40;;
72337;SDS011;60294;64.134;-21.862;2023-01-29T14:23:58;7.40;;;1.50;;
72337;SDS011;60294;64.134;-21.862;2023-01-29T14:26:43;2.13;;;1.03;;
72337;SDS011;60294;64.134;-21.862;2023-01-29T14:31:49;4.47;;;0.90;;
72337;SDS011;60294;64.134;-21.862;2023-01-29T14:39:44;11.07;;;2.00;;
72337;SDS011;60294;64.134;-21.862;2023-01-29T14:42:35;5.93;;;1.77;;
72337;SDS011;60294;64.134;-21.862;2023-01-29T14:47:58;12.77;;;2.50;;
72337;SDS011;60294;64.134;-21.862;2023-01-29T14:52:53;9.40;;;1.70;;
72337;SDS011;60294;64.134;-21.862;2023-01-29T14:58:04;15.63;;;2.17;;
72337;SDS011;60294;64.134;-21.862;2023-01-29T15:00:39;11.73;;;1.90;;
72337;SDS011;60294;64.134;-21.862;2023-01-29T15:03:17;17.17;;;2.70;;
72337;SDS011;60294;64.134;-21.862;2023-01-29T15:05:52;5.93;;;2.60;;
72337;SDS011;60294;64.134;-21.862;2023-01-29T15:08:23;12.47;;;3.10;;
72337;SDS011;60294;64.134;-21.862;2023-01-29T15:10:57;25.80;;;3.20;;
72337;SDS011;60294;64.134;-21.862;2023-01-29T15:13:56;26.67;;;3.73;;
72337;SDS011;60294;64.134;-21.862;2023-01-29T15:19:35;14.00;;;4.40;;
72337;SDS011;60294;64.134;-21.862;2023-01-29T15:24:42;19.50;;;3.43;;
72337;SDS011;60294;64.134;-21.862;2023-01-29T15:27:16;23.77;;;4.13;;
72337;SDS011;60294;64.134;-21.862;2023-01-29T15:29:49;18.83;;;3.90;;
72337;SDS011;60294;64.134;-21.862;2023-01-29T15:32:25;19.50;;;3.73;;
72337;SDS011;60294;64.134;-21.862;2023-01-29T15:34:55;15.63;;;3.77;;
72337;SDS011;60294;64.134;-21.862;2023-01-29T15:37:26;26.57;;;4.07;;
72337;SDS011;60294;64.134;-21.862;2023-01-29T15:39:54;22.77;;;4.73;;
72337;SDS011;60294;64.134;-21.862;2023-01-29T15:42:21;23.93;;;4.47;;
72337;SDS011;60294;64.134;-21.862;2023-01-29T15:44:50;22.57;;;3.73;;
72337;SDS011;60294;64.134;-21.862;2023-01-29T15:47:27;19.53;;;3.50;;
72337;SDS011;60294;64.134;-21.862;2023-01-29T15:49:55;18.00;;;3.43;;
72337;SDS011;60294;64.134;-21.862;2023-01-29T15:52:23;20.03;;;3.30;;
72337;SDS011;60294;64.134;-21.862;2023-01-29T15:54:53;15.60;;;3.10;;
72337;SDS011;60294;64.134;-21.862;2023-01-29T15:57:22;10.87;;;1.90;;
72337;SDS011;60294;64.134;-21.862;2023-01-29T15:59:52;10.70;;;1.97;;
72337;SDS011;60294;64.134;-21.862;2023-01-29T16:02:41;11.83;;;2.27;;
72337;SDS011;60294;64.134;-21.862;2023-01-29T16:05:10;13.10;;;2.13;;
72337;SDS011;60294;64.134;-21.862;2023-01-29T16:07:39;9.13;;;2.35;;
72337;SDS011;60294;64.134;-21.862;2023-01-29T16:10:10;9.93;;;2.37;;
72337;SDS011;60294;64.134;-21.862;2023-01-29T16:12:41;7.80;;;1.77;;
72337;SDS011;60294;64.134;-21.862;2023-01-29T16:15:21;8.30;;;1.77;;
72337;SDS011;60294;64.134;-21.862;2023-01-29T16:17:53;8.43;;;1.20;;
72337;SDS011;60294;64.134;-21.862;2023-01-29T16:23:19;13.70;;;2.57;;
72337;SDS011;60294;64.134;-21.862;2023-01-29T16:25:48;4.77;;;1.10;;
72337;SDS011;60294;64.134;-21.862;2023-01-29T16:28:15;6.63;;;1.17;;
72337;SDS011;60294;64.134;-21.862;2023-01-29T16:30:42;5.50;;;1.23;;
72337;SDS011;60294;64.134;-21.862;2023-01-29T16:33:10;16.27;;;1.80;;
72337;SDS011;60294;64.134;-21.862;2023-01-29T16:35:39;7.03;;;1.30;;
72337;SDS011;60294;64.134;-21.862;2023-01-29T16:38:15;4.83;;;1.27;;
72337;SDS011;60294;64.134;-21.862;2023-01-29T16:41:04;5.33;;;1.07;;
72337;SDS011;60294;64.134;-21.862;2023-01-29T16:46:00;9.30;;;1.83;;
72337;SDS011;60294;64.134;-21.862;2023-01-29T16:48:30;8.77;;;1.40;;
72337;SDS011;60294;64.134;-21.862;2023-01-29T16:51:18;9.50;;;1.53;;
72337;SDS011;60294;64.134;-21.862;2023-01-29T16:54:00;8.50;;;1.60;;
72337;SDS011;60294;64.134;-21.862;2023-01-29T16:56:31;8.17;;;1.33;;
72337;SDS011;60294;64.134;-21.862;2023-01-29T16:58:59;10.17;;;1.43;;
72337;SDS011;60294;64.134;-21.862;2023-01-29T17:01:27;11.70;;;2.13;;
72337;SDS011;60294;64.134;-21.862;2023-01-29T17:06:35;11.63;;;1.33;;
72337;SDS011;60294;64.134;-21.862;2023-01-29T17:09:02;9.97;;;1.47;;
72337;SDS011;60294;64.134;-21.862;2023-01-29T17:11:33;10.77;;;1.70;;
72337;SDS011;60294;64.134;-21.862;2023-01-29T17:14:02;30.08;;;2.17;;
72337;SDS011;60294;64.134;-21.862;2023-01-29T17:16:31;12.40;;;2.13;;
72337;SDS011;60294;64.134;-21.862;2023-01-29T17:18:59;14.83;;;2.07;;
72337;SDS011;60294;64.134;-21.862;2023-01-29T17:21:27;9.67;;;2.07;;
72337;SDS011;60294;64.134;-21.862;2023-01-29T17:23:54;12.60;;;2.43;;
72337;SDS011;60294;64.134;-21.862;2023-01-29T17:26:20;16.03;;;3.23;;
72337;SDS011;60294;64.134;-21.862;2023-01-29T17:28:47;9.30;;;2.77;;
72337;SDS011;60294;64.134;-21.862;2023-01-29T17:31:15;12.37;;;2.60;;
72337;SDS011;60294;64.134;-21.862;2023-01-29T17:33:42;11.73;;;2.33;;
72337;SDS011;60294;64.134;-21.862;2023-01-29T17:36:12;17.43;;;3.63;;